Terminal Aerodrome Forecast
Issued by NWS

Home | Current Version | Previous Version | Text Only | Print | Product List | Glossary On
Versions: 1 2 3 4 5 6 7 8 9 10 11 12 13 14 15
078
FTUS43 KMQT 192337
TAFSAW
TAF
KSAW 192337Z 2000/2024 03015G24KT 1SM -SN OVC006
     FM200300 03011G18KT 2SM -SN OVC008
     FM200400 03012KT 1 1/2SM -FZDZSN OVC008
     FM200600 03013KT 2SM -FZRASN OVC008
     FM201000 04010KT 3SM -FZDZSN OVC008
     FM201400 06007KT 3SM -FZRASN OVC008
     FM201800 00000KT P6SM OVC008
     FM202200 34003KT P6SM BKN012=

USA.gov is the U.S. government's official web portal to all federal, state and local government web resources and services.